createdAt,value
2023-09-11T00:01:42.339Z,18.75
2023-09-11T00:06:43.393Z,18.6875
2023-09-11T00:11:44.544Z,18.8125
2023-09-11T00:16:45.347Z,18.6875
2023-09-11T00:21:46.249Z,18.75
2023-09-11T00:26:47.188Z,18.5625
2023-09-11T00:31:47.977Z,18.6875
2023-09-11T00:36:49.003Z,18.75
2023-09-11T00:41:50.261Z,18.625
2023-09-11T00:46:51.283Z,18.5
2023-09-11T00:51:58.122Z,18.5625
2023-09-11T00:56:54.111Z,18.5625
2023-09-11T01:01:55.174Z,18.4375
2023-09-11T01:06:56.095Z,18.4375
2023-09-11T01:11:57.263Z,18.3125
2023-09-11T01:16:58.453Z,18.3125
2023-09-11T01:21:59.384Z,18.3125
2023-09-11T01:27:00.465Z,18.1875
2023-09-11T01:32:01.540Z,18.125
2023-09-11T01:37:02.462Z,18
2023-09-11T01:42:03.459Z,17.9375
2023-09-11T01:47:04.791Z,18
2023-09-11T01:52:05.449Z,17.8125
2023-09-11T01:57:06.601Z,17.75
2023-09-11T02:02:07.538Z,17.75
2023-09-11T02:07:08.613Z,17.75
2023-09-11T02:12:09.642Z,17.8125
2023-09-11T02:17:10.652Z,17.6875
2023-09-11T02:22:11.515Z,17.625
2023-09-11T02:27:12.451Z,17.625
2023-09-11T02:32:13.383Z,17.6875
2023-09-11T02:37:14.381Z,17.5625
2023-09-11T02:42:15.301Z,17.4375
2023-09-11T02:47:16.258Z,17.4375
2023-09-11T02:52:17.363Z,17.5
2023-09-11T02:57:18.496Z,17.5625
2023-09-11T03:02:19.472Z,17.375
2023-09-11T03:07:20.316Z,17.4375
2023-09-11T03:12:21.360Z,17.5625
2023-09-11T03:17:22.239Z,17.5
2023-09-11T03:22:23.184Z,17.375
2023-09-11T03:27:24.127Z,17.3125
2023-09-11T03:32:25.333Z,17.25
2023-09-11T03:37:26.502Z,17.3125
2023-09-11T03:42:27.616Z,17
2023-09-11T03:47:28.531Z,17.125
2023-09-11T03:52:29.685Z,17
2023-09-11T03:57:30.647Z,17.0625
2023-09-11T04:02:31.565Z,17.0625
2023-09-11T04:07:32.523Z,17.0625
2023-09-11T04:12:33.530Z,17.0625
2023-09-11T04:17:34.460Z,17.0625
2023-09-11T04:22:35.615Z,17.125
2023-09-11T04:27:36.781Z,17.0625
2023-09-11T04:32:37.742Z,16.9375
2023-09-11T04:37:38.602Z,16.75
2023-09-11T04:42:39.716Z,16.625
2023-09-11T04:47:40.949Z,16.75
2023-09-11T04:52:41.758Z,16.8125
2023-09-11T04:57:42.731Z,16.75
2023-09-11T05:02:43.585Z,16.875
2023-09-11T05:07:44.684Z,17
2023-09-11T05:12:45.763Z,16.9375
2023-09-11T05:17:46.651Z,17.125
2023-09-11T05:22:47.571Z,17.25
2023-09-11T05:27:48.595Z,17.25
2023-09-11T05:32:49.740Z,17.3125
2023-09-11T05:37:50.900Z,17.375
2023-09-11T05:42:51.761Z,17.4375
2023-09-11T05:47:52.796Z,17.5625
2023-09-11T05:52:53.995Z,17.625
2023-09-11T05:57:54.907Z,17.8125
2023-09-11T06:02:56.162Z,17.875
2023-09-11T06:07:57.152Z,18.1875
2023-09-11T06:12:58.201Z,18.375
2023-09-11T06:17:59.078Z,18.625
2023-09-11T06:23:00.333Z,18.8125
2023-09-11T06:28:01.534Z,19.0625
2023-09-11T06:33:02.453Z,19.3125
2023-09-11T06:38:03.392Z,19.625
2023-09-11T06:43:04.352Z,19.8125
2023-09-11T06:48:05.594Z,20.0625
2023-09-11T06:53:06.523Z,20.3125
2023-09-11T06:58:07.397Z,20.9375
2023-09-11T07:03:08.576Z,26.75
2023-09-11T07:08:09.342Z,28
2023-09-11T07:13:10.380Z,29.1875
2023-09-11T07:18:11.383Z,28.9375
2023-09-11T07:23:12.312Z,30.0625
2023-09-11T07:28:13.171Z,29.3125
2023-09-11T07:33:14.520Z,30.9375
2023-09-11T07:38:15.499Z,30.0625
2023-09-11T07:43:16.460Z,31.9375
2023-09-11T07:48:17.596Z,33.5625
2023-09-11T07:53:18.547Z,31.1875
2023-09-11T07:58:19.599Z,32.1875
2023-09-11T08:03:20.686Z,33.1875
2023-09-11T08:08:21.852Z,35.125
2023-09-11T08:13:22.910Z,33.1875
2023-09-11T08:18:23.857Z,34.5625
2023-09-11T08:23:24.888Z,33.6875
2023-09-11T08:28:25.818Z,33
2023-09-11T08:33:30.207Z,32.3125
2023-09-11T08:38:27.962Z,28.3125
2023-09-11T08:43:29.209Z,27.25
2023-09-11T08:48:30.065Z,27.375
2023-09-11T08:53:31.084Z,27.3125
2023-09-11T08:58:32.156Z,26.8125
2023-09-11T09:03:33.417Z,27.125
2023-09-11T09:08:34.437Z,27.125
2023-09-11T09:13:35.411Z,27.1875
2023-09-11T09:18:36.466Z,27.125
2023-09-11T09:23:37.499Z,26.9375
2023-09-11T09:28:38.249Z,27.0625
2023-09-11T09:33:39.241Z,27.125
2023-09-11T09:38:40.103Z,27.125
2023-09-11T09:43:41.281Z,27.125
2023-09-11T09:48:42.540Z,26.625
2023-09-11T09:53:43.174Z,26.125
2023-09-11T09:58:44.311Z,27.375
2023-09-11T10:03:45.186Z,26.9375
2023-09-11T10:08:45.938Z,26.9375
2023-09-11T10:13:46.949Z,27.5
2023-09-11T10:18:48.042Z,27.4375
2023-09-11T10:23:48.844Z,27.375
2023-09-11T10:28:49.663Z,27.4375
2023-09-11T10:33:50.616Z,27.125
2023-09-11T10:38:51.636Z,27.3125
2023-09-11T10:43:52.697Z,27.4375
2023-09-11T10:48:53.823Z,27.6875
2023-09-11T10:53:54.811Z,26.8125
2023-09-11T10:58:55.933Z,27.125
2023-09-11T11:03:56.816Z,27.5625
2023-09-11T11:08:57.814Z,27.1875
2023-09-11T11:13:58.778Z,27.4375
2023-09-11T11:18:59.776Z,27.75
2023-09-11T11:24:00.942Z,27.375
2023-09-11T11:29:01.858Z,27.8125
2023-09-11T11:34:02.842Z,28.0625
2023-09-11T11:39:03.903Z,27.9375
2023-09-11T11:44:05.078Z,27.125
2023-09-11T11:49:06.029Z,27.1875
2023-09-11T11:54:06.998Z,26.6875
2023-09-11T11:59:07.892Z,26.625
2023-09-11T12:04:09.082Z,27.625
2023-09-11T12:09:09.973Z,28.125
2023-09-11T12:14:10.958Z,27.875
2023-09-11T12:19:11.954Z,27.875
2023-09-11T12:24:13.082Z,27.9375
2023-09-11T12:29:14.070Z,28.0625
2023-09-11T12:34:15.111Z,28.3125
2023-09-11T12:39:16.265Z,28.4375
2023-09-11T12:44:17.134Z,28.25
2023-09-11T12:49:18.193Z,27.375
2023-09-11T12:54:19.549Z,26.9375
2023-09-11T12:59:20.421Z,27.125
2023-09-11T13:04:21.383Z,27.375
2023-09-11T13:09:22.458Z,27.125
2023-09-11T13:14:23.449Z,27.0625
2023-09-11T13:19:24.447Z,27.625
2023-09-11T13:24:25.563Z,28.5625
2023-09-11T13:29:26.567Z,28.5625
2023-09-11T13:34:27.619Z,28.4375
2023-09-11T13:39:28.882Z,28.1875
2023-09-11T13:44:29.678Z,26.8125
2023-09-11T13:49:30.496Z,28.4375
2023-09-11T13:54:31.493Z,28.1875
2023-09-11T13:59:32.563Z,28
2023-09-11T14:04:33.532Z,27.125
2023-09-11T14:09:34.387Z,26.75
2023-09-11T14:14:35.312Z,27.3125
2023-09-11T14:19:36.364Z,26.9375
2023-09-11T14:24:37.300Z,27.6875
2023-09-11T14:29:38.409Z,28.0625
2023-09-11T14:34:39.345Z,27.1875
2023-09-11T14:39:40.177Z,26.4375
2023-09-11T14:44:41.170Z,27.0625
2023-09-11T14:49:42.023Z,27.8125
2023-09-11T14:54:53.447Z,27.9375
2023-09-11T14:59:44.120Z,27.75
2023-09-11T15:04:48.857Z,27.5625
2023-09-11T15:09:46.024Z,27.9375
2023-09-11T15:14:47.975Z,28.125
2023-09-11T15:19:48.195Z,27.3125
2023-09-11T15:24:49.194Z,27.4375
2023-09-11T15:29:50.475Z,27.4375
2023-09-11T15:34:51.657Z,27.625
2023-09-11T15:39:52.704Z,26.5
2023-09-11T15:44:53.900Z,26.9375
2023-09-11T15:49:54.946Z,26.125
2023-09-11T15:54:55.884Z,26.9375
2023-09-11T15:59:56.740Z,25.5625
2023-09-11T16:04:58.666Z,26.5625
2023-09-11T16:09:59.557Z,26.3125
2023-09-11T16:15:00.618Z,25.8125
2023-09-11T16:20:01.402Z,25.8125
2023-09-11T16:25:02.556Z,24.9375
2023-09-11T16:30:03.674Z,24.9375
2023-09-11T16:35:04.572Z,25.0625
2023-09-11T16:40:05.522Z,25.0625
2023-09-11T16:45:06.524Z,25.5625
2023-09-11T16:50:07.557Z,25.4375
2023-09-11T16:55:08.533Z,25.3125
2023-09-11T17:00:09.529Z,24.8125
2023-09-11T17:05:10.583Z,25.1875
2023-09-11T17:10:11.408Z,24.9375
2023-09-11T17:15:13.332Z,24.5
2023-09-11T17:20:13.523Z,24.5
2023-09-11T17:25:14.651Z,24.75
2023-09-11T17:30:15.697Z,24.6875
2023-09-11T17:35:16.594Z,24.5625
2023-09-11T17:40:17.742Z,24.375
2023-09-11T17:45:18.937Z,24.3125
2023-09-11T17:50:19.862Z,24.25
2023-09-11T17:55:20.914Z,24.1875
2023-09-11T18:00:21.937Z,24.3125
2023-09-11T18:05:22.947Z,24.0625
2023-09-11T18:10:24.000Z,24.0625
2023-09-11T18:15:25.243Z,24
2023-09-11T18:20:26.033Z,23.875
2023-09-11T18:25:26.953Z,23.9375
2023-09-11T18:30:27.948Z,24.0625
2023-09-11T18:35:28.826Z,23.9375
2023-09-11T18:40:29.937Z,23.5
2023-09-11T18:45:31.015Z,23.0625
2023-09-11T18:50:32.057Z,23.0625
2023-09-11T18:55:33.010Z,23.1875
2023-09-11T19:00:34.135Z,23.0625
2023-09-11T19:05:34.949Z,23.125
2023-09-11T19:10:35.991Z,23.0625
2023-09-11T19:15:37.198Z,22.9375
2023-09-11T19:20:38.427Z,22.75
2023-09-11T19:25:39.246Z,22.8125
2023-09-11T19:30:40.018Z,22.625
2023-09-11T19:35:40.981Z,22.4375
2023-09-11T19:40:42.010Z,22.4375
2023-09-11T19:45:43.104Z,22.4375
2023-09-11T19:50:43.892Z,22.25
2023-09-11T19:55:44.960Z,22.25
2023-09-11T20:00:45.851Z,22.1875
2023-09-11T20:05:46.950Z,22.0625
2023-09-11T20:10:47.882Z,22.125
2023-09-11T20:15:49.059Z,22
2023-09-11T20:20:50.044Z,21.875
2023-09-11T20:25:50.951Z,21.875
2023-09-11T20:30:52.370Z,21.8125
2023-09-11T20:35:53.325Z,21.6875
2023-09-11T20:40:54.143Z,21.625
2023-09-11T20:45:55.026Z,21.4375
2023-09-11T20:50:56.142Z,21.5625
2023-09-11T20:55:57.108Z,21.375
2023-09-11T21:00:58.499Z,21.4375
2023-09-11T21:05:59.478Z,21.3125
2023-09-11T21:11:00.443Z,21.1875
2023-09-11T21:16:02.777Z,21.0625
2023-09-11T21:21:03.004Z,21.0625
2023-09-11T21:26:03.517Z,21.0625
2023-09-11T21:31:04.522Z,21.1875
2023-09-11T21:36:05.773Z,21.0625
2023-09-11T21:41:06.846Z,20.9375
2023-09-11T21:46:08.039Z,20.9375
2023-09-11T21:51:08.737Z,20.9375
2023-09-11T21:56:09.834Z,20.9375
2023-09-11T22:01:10.895Z,20.875
2023-09-11T22:06:12.000Z,20.6875
2023-09-11T22:11:12.963Z,20.6875
2023-09-11T22:16:14.015Z,20.6875
2023-09-11T22:21:14.987Z,20.5625
2023-09-11T22:26:15.764Z,20.5625
2023-09-11T22:31:16.950Z,20.4375
2023-09-11T22:36:18.077Z,20.375
2023-09-11T22:41:18.629Z,20.25
2023-09-11T22:46:19.663Z,20.25
2023-09-11T22:51:20.634Z,20.25
2023-09-11T22:56:21.631Z,20.25
2023-09-11T23:06:29.255Z,20
2023-09-11T23:11:30.333Z,20
2023-09-11T23:16:31.463Z,19.875
2023-09-11T23:21:32.420Z,19.75
2023-09-11T23:26:33.456Z,19.8125
2023-09-11T23:31:34.382Z,19.5
2023-09-11T23:36:35.355Z,19.4375
2023-09-11T23:41:36.219Z,19.5
2023-09-11T23:46:37.153Z,19.4375
2023-09-11T23:51:38.102Z,19.4375
2023-09-11T23:56:40.076Z,19.3125
